Time;durP1;ratioP1;P1;durP2;ratioP2;P2;SDS_P1;SDS_P2;PMS_P1;PMS_P2;Temp;Humidity;BMP_temperature;BMP_pressure;BME280_temperature;BME280_humidity;BME280_pressure;Samples;Min_cycle;Max_cycle;Signal;HPM_P1;HPM_P2
2024/01/15 00:01:48;;;;;;;13.60;9.60;;;;;;;-0.95;99.05;96821.92;105372;1269;61129;-91
2024/01/15 00:04:15;;;;;;;13.90;9.80;;;;;;;-0.94;98.46;96820.09;105208;1266;61191;-90
2024/01/15 00:06:44;;;;;;;15.10;11.40;;;;;;;-0.92;98.20;96817.91;105248;1266;72857;-91
2024/01/15 00:09:11;;;;;;;17.00;10.80;;;;;;;-0.90;98.16;96812.86;105172;1272;75878;-92
2024/01/15 00:11:38;;;;;;;11.70;10.30;;;;;;;-0.88;98.08;96813.84;105056;1270;73495;-90
2024/01/15 00:14:06;;;;;;;11.30;9.80;;;;;;;-0.87;97.84;96808.89;107631;1264;62124;-91
2024/01/15 00:16:33;;;;;;;14.80;11.70;;;;;;;-0.85;97.68;96808.76;105259;1268;60978;-92
2024/01/15 00:19:01;;;;;;;12.50;10.10;;;;;;;-0.82;97.25;96805.29;105065;1264;74327;-90
2024/01/15 00:21:29;;;;;;;14.70;10.00;;;;;;;-0.80;97.39;96809.96;105379;1264;74532;-91
2024/01/15 00:23:57;;;;;;;11.90;8.50;;;;;;;-0.80;96.75;96803.79;105221;1264;72028;-89
2024/01/15 00:26:24;;;;;;;12.80;9.50;;;;;;;-0.79;96.81;96792.31;105219;1265;61185;-90
2024/01/15 00:28:51;;;;;;;11.80;8.50;;;;;;;-0.77;96.48;96795.91;105319;1264;61221;-90
2024/01/15 00:31:19;;;;;;;12.30;9.90;;;;;;;-0.76;96.38;96795.50;105371;1269;73739;-91
2024/01/15 00:33:46;;;;;;;11.30;8.50;;;;;;;-0.75;96.46;96791.94;105155;1264;73227;-90
2024/01/15 00:36:14;;;;;;;12.20;10.70;;;;;;;-0.75;96.21;96797.19;105417;1265;72695;-91
2024/01/15 00:38:44;;;;;;;12.20;9.80;;;;;;;-0.74;96.28;96798.02;105169;1264;61741;-91
2024/01/15 00:41:11;;;;;;;12.10;10.30;;;;;;;-0.72;96.49;96796.39;105204;1264;61168;-92
2024/01/15 00:43:38;;;;;;;11.70;9.50;;;;;;;-0.71;96.08;96799.48;105215;1270;74708;-90
2024/01/15 00:46:05;;;;;;;10.50;9.30;;;;;;;-0.69;96.25;96799.74;105028;1270;74776;-90
2024/01/15 00:48:33;;;;;;;13.20;10.10;;;;;;;-0.69;96.27;96807.81;105290;1264;71143;-89
2024/01/15 00:51:01;;;;;;;12.40;10.40;;;;;;;-0.68;96.13;96796.52;105271;1269;61093;-88
2024/01/15 00:53:29;;;;;;;11.30;9.30;;;;;;;-0.69;96.45;96795.86;105371;1269;61198;-90
2024/01/15 00:55:56;;;;;;;11.50;9.40;;;;;;;-0.68;96.46;96795.48;105038;1273;73940;-91
2024/01/15 00:58:24;;;;;;;11.80;9.00;;;;;;;-0.67;96.02;96795.79;105228;1273;74307;-91
2024/01/15 01:00:51;;;;;;;12.10;9.40;;;;;;;-0.67;96.07;96796.50;105670;1270;70326;-91
2024/01/15 01:03:19;;;;;;;11.60;8.50;;;;;;;-0.68;96.01;96798.99;105327;1264;61010;-90
2024/01/15 01:05:48;;;;;;;11.90;8.10;;;;;;;-0.69;95.24;96802.91;105072;1265;61211;-91
2024/01/15 01:08:16;;;;;;;9.20;6.60;;;;;;;-0.69;94.80;96802.91;105654;1267;72696;-91
2024/01/15 01:10:43;;;;;;;6.80;5.50;;;;;;;-0.68;94.31;96795.30;105424;1265;72235;-92
2024/01/15 01:13:11;;;;;;;12.80;8.00;;;;;;;-0.66;94.08;96795.00;105448;1267;72799;-91
2024/01/15 01:15:38;;;;;;;10.30;7.10;;;;;;;-0.63;94.01;96778.88;105322;1268;61166;-91
2024/01/15 01:18:06;;;;;;;11.00;6.50;;;;;;;-0.61;94.04;96780.20;105393;1264;61240;-92
2024/01/15 01:20:33;;;;;;;8.40;6.00;;;;;;;-0.60;93.36;96774.65;105472;1264;73126;-92
2024/01/15 01:23:01;;;;;;;6.20;5.40;;;;;;;-0.58;93.65;96772.48;105553;1264;74338;-91
2024/01/15 01:25:28;;;;;;;6.80;5.00;;;;;;;-0.56;93.02;96772.70;105338;1267;72047;-91
2024/01/15 01:27:56;;;;;;;8.00;6.70;;;;;;;-0.55;92.88;96768.77;105722;1264;61143;-90
2024/01/15 01:30:23;;;;;;;9.10;7.00;;;;;;;-0.54;93.00;96768.23;108225;1267;59854;-91
2024/01/15 01:32:50;;;;;;;10.40;7.10;;;;;;;-0.52;92.83;96766.39;105554;1269;73684;-91
2024/01/15 01:35:18;;;;;;;11.40;8.10;;;;;;;-0.50;92.46;96768.54;105677;1267;74531;-89
2024/01/15 01:37:45;;;;;;;9.90;8.40;;;;;;;-0.47;92.81;96767.14;106275;1264;72517;-87
2024/01/15 01:40:12;;;;;;;9.00;7.60;;;;;;;-0.45;92.34;96769.15;106073;1268;61086;-93
2024/01/15 01:42:40;;;;;;;8.40;7.40;;;;;;;-0.44;92.59;96766.11;105531;1264;61128;-91
2024/01/15 01:45:08;;;;;;;9.10;6.80;;;;;;;-0.42;92.16;96767.04;105394;1264;72675;-91
2024/01/15 01:47:36;;;;;;;9.10;7.50;;;;;;;-0.40;92.18;96759.57;105172;1269;73217;-89
2024/01/15 01:50:03;;;;;;;9.70;7.40;;;;;;;-0.37;92.35;96763.46;105057;1269;72461;-91
2024/01/15 01:52:31;;;;;;;9.90;7.80;;;;;;;-0.35;92.08;96766.71;105081;1267;61237;-90
2024/01/15 01:55:00;;;;;;;9.20;7.00;;;;;;;-0.34;92.28;96761.92;105337;1264;61316;-91
2024/01/15 01:57:28;;;;;;;9.50;7.70;;;;;;;-0.32;92.51;96760.60;105323;1267;73852;-89
2024/01/15 01:59:55;;;;;;;10.20;7.90;;;;;;;-0.31;92.83;96757.59;105315;1270;73033;-88
2024/01/15 02:02:22;;;;;;;9.00;8.10;;;;;;;-0.31;92.60;96755.08;105484;1264;71869;-89
2024/01/15 02:04:50;;;;;;;9.40;8.20;;;;;;;-0.30;92.50;96750.64;105177;1265;61178;-90
2024/01/15 02:07:17;;;;;;;8.80;7.90;;;;;;;-0.28;92.68;96744.04;105168;1265;61131;-91
2024/01/15 02:09:45;;;;;;;8.90;7.90;;;;;;;-0.27;92.79;96740.82;105234;1265;74788;-90
2024/01/15 02:12:12;;;;;;;8.20;7.10;;;;;;;-0.25;93.12;96737.36;105092;1272;73354;-90
2024/01/15 02:14:40;;;;;;;8.60;7.10;;;;;;;-0.24;93.31;96736.58;105211;1264;72575;-90
2024/01/15 02:17:07;;;;;;;8.60;7.10;;;;;;;-0.23;93.50;96726.49;105127;1267;61786;-91
2024/01/15 02:19:34;;;;;;;9.30;7.50;;;;;;;-0.23;93.27;96721.05;105430;1268;61063;-91
2024/01/15 02:22:02;;;;;;;11.20;8.00;;;;;;;-0.22;92.98;96717.15;105149;1270;74903;-90
2024/01/15 02:24:30;;;;;;;7.90;6.70;;;;;;;-0.22;93.16;96714.84;105213;1264;75623;-91
2024/01/15 02:26:57;;;;;;;9.40;7.30;;;;;;;-0.21;93.24;96723.27;105219;1264;71442;-91
2024/01/15 02:29:24;;;;;;;9.50;7.70;;;;;;;-0.22;93.22;96715.76;105068;1270;61991;-92
2024/01/15 02:31:52;;;;;;;8.80;7.10;;;;;;;-0.22;92.92;96726.81;105169;1264;61109;-90
2024/01/15 02:34:19;;;;;;;9.70;7.10;;;;;;;-0.22;92.87;96723.13;105311;1265;73807;-90
2024/01/15 02:36:47;;;;;;;9.00;7.80;;;;;;;-0.23;93.06;96721.61;105102;1272;73272;-90
2024/01/15 02:39:14;;;;;;;8.90;7.60;;;;;;;-0.24;93.54;96719.52;107465;1266;72614;-90
2024/01/15 02:41:41;;;;;;;9.10;7.80;;;;;;;-0.25;93.65;96710.77;108493;1265;58675;-90
2024/01/15 02:44:11;;;;;;;7.80;7.00;;;;;;;-0.24;93.55;96710.55;108109;1266;61074;-92
2024/01/15 02:46:38;;;;;;;9.90;8.00;;;;;;;-0.22;93.78;96703.09;105110;1265;75107;-91
2024/01/15 02:49:06;;;;;;;8.70;7.00;;;;;;;-0.21;93.80;96713.55;105220;1267;74653;-92
2024/01/15 02:51:33;;;;;;;8.60;6.80;;;;;;;-0.20;93.85;96719.33;104804;1267;71649;-91
2024/01/15 02:54:01;;;;;;;10.50;7.60;;;;;;;-0.21;93.48;96714.27;104828;1267;61061;-90
2024/01/15 02:56:28;;;;;;;8.90;6.60;;;;;;;-0.20;93.75;96703.16;105138;1271;61374;-94
2024/01/15 02:58:56;;;;;;;8.20;6.60;;;;;;;-0.19;93.63;96703.98;105340;1266;72843;-90
2024/01/15 03:01:23;;;;;;;8.50;7.00;;;;;;;-0.20;93.52;96696.08;105380;1269;74279;-91
2024/01/15 03:03:50;;;;;;;9.00;7.70;;;;;;;-0.19;93.68;96694.66;105211;1266;72362;-91
2024/01/15 03:06:18;;;;;;;8.20;6.80;;;;;;;-0.19;93.65;96695.49;105234;1264;61096;-91
2024/01/15 03:08:45;;;;;;;8.80;7.60;;;;;;;-0.17;93.09;96699.31;105291;1264;61071;-90
2024/01/15 03:11:13;;;;;;;8.30;7.10;;;;;;;-0.18;93.18;96701.27;105104;1272;76767;-90
2024/01/15 03:13:40;;;;;;;10.40;7.70;;;;;;;-0.17;93.24;96702.30;105152;1265;74116;-93
2024/01/15 03:16:07;;;;;;;8.80;7.40;;;;;;;-0.17;92.60;96702.29;105077;1268;72604;-89
2024/01/15 03:18:34;;;;;;;8.70;6.60;;;;;;;-0.18;92.69;96696.50;104999;1270;61137;-90
2024/01/15 03:21:02;;;;;;;8.90;7.80;;;;;;;-0.17;92.61;96688.92;105082;1272;61190;-89
2024/01/15 03:23:29;;;;;;;10.40;6.30;;;;;;;-0.16;92.59;96686.60;105250;1264;74668;-90
2024/01/15 03:25:57;;;;;;;9.10;7.20;;;;;;;-0.17;92.04;96689.10;105291;1264;73462;-92
2024/01/15 03:28:24;;;;;;;9.10;7.20;;;;;;;-0.17;92.51;96685.58;105416;1264;71692;-92
2024/01/15 03:30:51;;;;;;;10.30;7.70;;;;;;;-0.17;92.33;96685.06;105081;1273;61220;-91
2024/01/15 03:33:19;;;;;;;9.10;7.20;;;;;;;-0.17;92.09;96688.38;104828;1267;61441;-90
2024/01/15 03:35:50;;;;;;;9.20;7.60;;;;;;;-0.17;91.87;96683.29;105426;1267;72426;-91
2024/01/15 03:38:23;;;;;;;9.40;7.10;;;;;;;-0.17;91.38;96682.58;105378;1264;73185;-91
2024/01/15 03:40:50;;;;;;;9.20;7.00;;;;;;;-0.16;91.14;96679.90;105273;1264;71490;-90
2024/01/15 03:43:17;;;;;;;9.00;6.90;;;;;;;-0.16;91.25;96683.75;105041;1265;61189;-91
2024/01/15 03:45:45;;;;;;;9.60;6.50;;;;;;;-0.14;91.22;96681.02;105136;1265;61120;-91
2024/01/15 03:48:13;;;;;;;7.20;6.40;;;;;;;-0.15;90.54;96679.99;105420;1264;74206;-90
2024/01/15 03:50:40;;;;;;;8.00;7.10;;;;;;;-0.15;90.92;96676.48;105524;1264;73443;-90
2024/01/15 03:53:07;;;;;;;9.00;6.60;;;;;;;-0.15;90.84;96676.30;105172;1266;72965;-93
2024/01/15 03:55:35;;;;;;;8.90;8.00;;;;;;;-0.16;90.94;96667.89;105299;1265;61119;-91
2024/01/15 03:58:15;;;;;;;9.40;6.90;;;;;;;-0.15;90.79;96668.58;106281;1266;62340;-91
2024/01/15 04:00:43;;;;;;;9.70;7.00;;;;;;;-0.16;91.04;96667.02;108572;1266;72962;-91
2024/01/15 04:03:10;;;;;;;7.70;5.70;;;;;;;-0.16;90.74;96663.87;105700;1266;73560;-90
2024/01/15 04:05:38;;;;;;;9.90;7.50;;;;;;;-0.15;90.28;96656.45;105137;1270;72734;-90
2024/01/15 04:08:06;;;;;;;8.60;6.10;;;;;;;-0.16;90.59;96652.08;105104;1266;61229;-90
2024/01/15 04:10:34;;;;;;;9.10;6.60;;;;;;;-0.15;91.21;96652.02;105513;1265;61209;-91
2024/01/15 04:13:03;;;;;;;8.50;7.20;;;;;;;-0.15;91.13;96653.09;105959;1267;74739;-90
2024/01/15 04:15:31;;;;;;;9.50;6.40;;;;;;;-0.15;91.12;96645.86;105677;1266;72975;-90
2024/01/15 04:18:00;;;;;;;10.00;7.20;;;;;;;-0.15;91.82;96642.20;105847;1267;70728;-89
2024/01/15 04:20:28;;;;;;;10.60;7.50;;;;;;;-0.16;91.62;96645.39;105942;1266;61754;-89
2024/01/15 04:22:56;;;;;;;11.30;9.10;;;;;;;-0.16;91.90;96642.39;105913;1267;60512;-90
2024/01/15 04:25:23;;;;;;;20.60;13.60;;;;;;;-0.16;92.06;96631.67;105093;1267;73929;-90
2024/01/15 04:27:50;;;;;;;14.50;10.80;;;;;;;-0.17;91.97;96636.14;105204;1267;74626;-91
2024/01/15 04:30:18;;;;;;;10.30;7.20;;;;;;;-0.18;92.17;96636.37;105259;1267;72901;-91
2024/01/15 04:32:45;;;;;;;9.00;6.60;;;;;;;-0.19;91.96;96628.98;105201;1268;61103;-93
2024/01/15 04:35:13;;;;;;;10.10;7.30;;;;;;;-0.19;92.20;96626.20;105246;1266;61314;-91
2024/01/15 04:37:40;;;;;;;11.10;8.60;;;;;;;-0.19;92.20;96620.55;106497;1266;72980;-89
2024/01/15 04:40:08;;;;;;;12.90;9.30;;;;;;;-0.20;92.65;96619.05;107850;1267;74431;-89
2024/01/15 04:42:36;;;;;;;8.60;7.70;;;;;;;-0.21;91.78;96621.23;107807;1266;72739;-90
2024/01/15 04:45:03;;;;;;;10.30;7.10;;;;;;;-0.21;92.01;96609.96;107194;1267;61157;-91
2024/01/15 04:47:33;;;;;;;8.80;6.50;;;;;;;-0.21;91.82;96604.86;105730;1267;61442;-91
2024/01/15 04:50:00;;;;;;;10.10;6.30;;;;;;;-0.20;92.14;96603.05;105696;1273;73897;-89
2024/01/15 04:52:28;;;;;;;9.50;6.40;;;;;;;-0.21;91.70;96601.88;105450;1267;73750;-92
2024/01/15 04:54:55;;;;;;;8.70;6.60;;;;;;;-0.22;91.93;96593.81;107383;1266;72543;-90
2024/01/15 04:57:23;;;;;;;8.40;6.60;;;;;;;-0.23;92.19;96590.73;107208;1266;61105;-91
2024/01/15 04:59:50;;;;;;;7.80;6.70;;;;;;;-0.25;92.20;96589.11;107565;1266;60313;-91
2024/01/15 05:02:17;;;;;;;9.60;7.20;;;;;;;-0.26;91.80;96590.36;107670;1267;73358;-91
2024/01/15 05:04:45;;;;;;;9.40;8.00;;;;;;;-0.24;91.98;96588.35;108689;1266;74510;-90
2024/01/15 05:07:12;;;;;;;5.60;4.90;;;;;;;-0.25;91.80;96585.39;108672;1266;72219;-90
2024/01/15 05:09:39;;;;;;;9.80;6.40;;;;;;;-0.26;92.21;96589.14;107851;1265;1002219;-89
2024/01/15 05:12:07;;;;;;;10.30;8.00;;;;;;;-0.26;91.98;96587.73;108504;1267;59449;-90
2024/01/15 05:14:34;;;;;;;9.10;7.60;;;;;;;-0.24;92.33;96589.02;108641;1267;72268;-89
2024/01/15 05:17:02;;;;;;;9.10;6.90;;;;;;;-0.22;92.03;96590.11;105235;1273;72194;-91
2024/01/15 05:19:29;;;;;;;8.10;6.30;;;;;;;-0.20;92.21;96593.73;105376;1270;71274;-94
2024/01/15 05:21:59;;;;;;;9.80;7.10;;;;;;;-0.20;91.57;96590.54;105159;1272;61144;-91
2024/01/15 05:24:26;;;;;;;9.90;6.50;;;;;;;-0.19;91.68;96589.06;105470;1268;61844;-90
2024/01/15 05:26:54;;;;;;;6.90;5.70;;;;;;;-0.18;91.60;96589.20;105583;1268;72811;-90
2024/01/15 05:29:21;;;;;;;7.10;5.50;;;;;;;-0.17;91.64;96585.30;105613;1267;74544;-90
2024/01/15 05:31:49;;;;;;;8.30;6.20;;;;;;;-0.16;91.54;96589.61;105333;1272;72885;-90
2024/01/15 05:34:17;;;;;;;9.10;6.70;;;;;;;-0.15;91.38;96580.79;105404;1270;61560;-91
2024/01/15 05:36:47;;;;;;;7.50;5.90;;;;;;;-0.15;91.45;96580.79;105168;1272;61449;-91
2024/01/15 05:39:15;;;;;;;7.30;6.30;;;;;;;-0.16;91.21;96568.85;105168;1273;73919;-91
2024/01/15 05:41:42;;;;;;;7.60;6.70;;;;;;;-0.15;91.35;96572.19;105215;1267;73266;-90
2024/01/15 05:44:10;;;;;;;8.70;5.90;;;;;;;-0.15;91.15;96573.91;105353;1270;72400;-90
2024/01/15 05:46:38;;;;;;;8.80;6.80;;;;;;;-0.14;91.36;96580.91;105099;1267;61138;-90
2024/01/15 05:49:05;;;;;;;8.50;6.20;;;;;;;-0.14;91.33;96574.37;105118;1273;61223;-91
2024/01/15 05:51:33;;;;;;;8.40;7.00;;;;;;;-0.13;91.27;96572.05;105318;1267;71769;-90
2024/01/15 05:54:00;;;;;;;8.40;6.50;;;;;;;-0.13;91.44;96571.19;105116;1267;75049;-90
2024/01/15 05:56:28;;;;;;;7.80;6.60;;;;;;;-0.14;91.99;96578.07;106148;1268;72670;-93
2024/01/15 05:58:56;;;;;;;7.10;6.40;;;;;;;-0.11;92.10;96563.86;106066;1267;60618;-92
2024/01/15 06:01:27;;;;;;;8.30;6.90;;;;;;;-0.11;92.13;96564.00;106885;1267;60934;-91
2024/01/15 06:03:58;;;;;;;7.20;5.70;;;;;;;-0.10;91.80;96560.65;105535;1273;74890;-90
2024/01/15 06:06:29;;;;;;;6.90;6.00;;;;;;;-0.10;91.73;96559.55;105265;1267;72451;-90
2024/01/15 06:08:59;;;;;;;8.90;6.80;;;;;;;-0.09;91.65;96553.00;105311;1267;71856;-89
2024/01/15 06:11:31;;;;;;;8.60;5.90;;;;;;;-0.08;91.93;96549.23;106133;1273;61282;-90
2024/01/15 06:14:22;;;;;;;11.10;8.30;;;;;;;-0.06;92.22;96554.20;105041;1275;61202;-92
2024/01/15 06:16:54;;;;;;;8.50;7.60;;;;;;;-0.05;91.87;96547.66;105025;1267;74059;-92
2024/01/15 06:19:22;;;;;;;8.80;7.90;;;;;;;-0.05;91.77;96547.83;105529;1267;75099;-91
2024/01/15 06:21:55;;;;;;;10.10;8.10;;;;;;;-0.04;92.17;96547.98;107437;1267;74342;-91
2024/01/15 06:24:25;;;;;;;9.30;7.70;;;;;;;-0.04;92.06;96548.50;104920;1268;61500;-92
2024/01/15 06:27:04;;;;;;;9.70;7.70;;;;;;;-0.03;91.67;96550.19;104951;1273;61533;-88
2024/01/15 06:29:31;;;;;;;10.30;8.00;;;;;;;-0.02;91.99;96546.95;104299;1267;1002998;-90
2024/01/15 06:31:59;;;;;;;8.90;7.80;;;;;;;0.00;92.03;96543.69;105149;1267;75410;-88
2024/01/15 06:34:27;;;;;;;10.30;7.10;;;;;;;0.02;91.75;96544.30;104965;1267;73762;-88
2024/01/15 06:44:42;;;;;;;12.50;10.40;;;;;;;0.05;91.91;96518.23;105549;1279;72567;-85
2024/01/15 06:47:10;;;;;;;13.20;9.80;;;;;;;0.07;92.00;96508.13;104608;1279;75060;-88
2024/01/15 06:49:38;;;;;;;14.50;11.80;;;;;;;0.09;91.91;96497.96;104508;1288;73494;-89
2024/01/15 06:52:06;;;;;;;13.50;11.40;;;;;;;0.11;91.93;96488.38;104473;1277;61303;-84
2024/01/15 06:54:33;;;;;;;15.70;12.20;;;;;;;0.11;91.80;96482.18;104864;1279;61210;-86
2024/01/15 06:57:06;;;;;;;14.40;12.70;;;;;;;0.12;91.66;96482.11;104408;1277;73882;-86
2024/01/15 06:59:35;;;;;;;12.00;9.20;;;;;;;0.13;91.60;96477.53;104276;1274;73149;-86
2024/01/15 07:02:03;;;;;;;18.70;13.70;;;;;;;0.13;91.38;96475.95;104447;1280;71418;-85
2024/01/15 07:04:30;;;;;;;18.20;14.30;;;;;;;0.13;90.88;96474.52;105510;1282;61080;-82
2024/01/15 07:06:57;;;;;;;20.60;13.40;;;;;;;0.14;90.91;96471.24;106368;1279;61266;-85
2024/01/15 07:09:25;;;;;;;25.20;14.90;;;;;;;0.16;90.95;96460.23;104621;1277;72763;-86
2024/01/15 07:11:52;;;;;;;23.00;13.60;;;;;;;0.17;90.62;96458.23;104490;1277;73637;-89
2024/01/15 07:59:51;;;;;;;10.30;7.50;;;;;;;0.41;88.65;96431.50;99310;1279;61243;-86
2024/01/15 08:03:06;;;;;;;9.20;6.20;;;;;;;0.42;88.68;96419.46;105142;1281;73098;-87
2024/01/15 08:05:52;;;;;;;8.30;7.40;;;;;;;0.43;88.72;96427.02;104953;1280;75045;-88
2024/01/15 08:08:27;;;;;;;9.20;6.60;;;;;;;0.43;88.51;96433.67;104402;1285;74702;-86
2024/01/15 08:11:29;;;;;;;10.90;7.60;;;;;;;0.42;88.58;96427.20;104330;1280;61195;-84
2024/01/15 08:18:37;;;;;;;11.50;8.60;;;;;;;0.41;87.73;96412.65;103978;1283;74000;-89
2024/01/15 08:21:35;;;;;;;;;;;;;;;;;;;;;
2024/01/15 08:24:16;;;;;;;19.30;8.20;;;;;;;0.41;87.51;96410.20;104144;1289;73044;-87
2024/01/15 08:27:37;;;;;;;16.00;9.60;;;;;;;0.40;87.54;96401.59;103993;1285;61141;-85
2024/01/15 08:31:04;;;;;;;8.60;6.30;;;;;;;0.42;87.29;96401.14;103928;1284;61448;-81
2024/01/15 08:34:33;;;;;;;10.30;6.80;;;;;;;0.43;86.76;96402.15;103960;1282;73344;-82
2024/01/15 08:38:35;;;;;;;;;;;;;;;;;;;;;
2024/01/15 08:42:11;;;;;;;9.40;7.10;;;;;;;0.52;87.20;96396.63;102591;1296;74050;-81
2024/01/15 08:44:59;;;;;;;8.50;7.10;;;;;;;0.58;86.91;96396.81;102638;1298;61129;-80
2024/01/15 08:47:36;;;;;;;9.30;7.60;;;;;;;0.64;86.82;96402.29;102679;1299;61776;-82
2024/01/15 08:50:10;;;;;;;13.50;7.10;;;;;;;0.70;86.11;96394.80;102755;1292;74828;-85
2024/01/15 08:52:38;;;;;;;10.50;6.30;;;;;;;0.77;86.24;96400.77;102897;1297;75460;-83
2024/01/15 08:55:18;;;;;;;10.80;6.50;;;;;;;0.84;85.54;96398.73;102900;1293;72853;-81
2024/01/15 08:57:46;;;;;;;9.40;6.40;;;;;;;0.92;85.79;96402.31;103006;1290;61564;-81
2024/01/15 09:00:48;;;;;;;7.80;5.90;;;;;;;1.01;85.17;96408.98;103498;1289;61356;-83
2024/01/15 09:03:17;;;;;;;9.80;6.30;;;;;;;1.08;84.98;96406.57;103067;1289;75471;-82
2024/01/15 09:05:49;;;;;;;9.20;6.50;;;;;;;1.15;84.53;96403.71;103229;1291;76246;-83
2024/01/15 09:08:27;;;;;;;10.20;7.30;;;;;;;1.22;84.27;96391.23;103168;1292;72489;-84
2024/01/15 09:11:15;;;;;;;10.40;8.00;;;;;;;1.28;84.03;96390.88;103266;1292;61225;-86
2024/01/15 09:13:47;;;;;;;15.80;10.80;;;;;;;1.33;84.26;96394.60;102875;1295;61148;-84
2024/01/15 09:16:17;;;;;;;13.50;9.90;;;;;;;1.37;84.07;96399.26;102332;1305;73150;-83
2024/01/15 09:19:04;;;;;;;10.90;8.90;;;;;;;1.41;84.16;96393.89;104906;1295;75400;-82
2024/01/15 09:21:33;;;;;;;12.70;8.20;;;;;;;1.44;84.43;96380.66;104645;1294;71755;-84
2024/01/15 09:24:00;;;;;;;10.80;9.70;;;;;;;1.47;84.47;96388.77;103057;1292;61158;-85
2024/01/15 09:26:28;;;;;;;12.80;9.60;;;;;;;1.50;84.67;96386.98;103142;1293;61400;-85
2024/01/15 09:29:06;;;;;;;12.20;8.40;;;;;;;1.52;84.78;96383.84;103304;1302;74802;-84
2024/01/15 09:31:39;;;;;;;10.60;8.30;;;;;;;1.55;84.69;96384.91;103221;1293;76086;-84
2024/01/15 09:34:11;;;;;;;7.50;5.40;;;;;;;1.56;84.36;96381.47;103187;1291;73284;-83
2024/01/15 09:36:43;;;;;;;10.70;8.00;;;;;;;1.58;84.40;96376.96;102804;1290;1002976;-83
2024/01/15 09:39:17;;;;;;;15.10;10.30;;;;;;;1.60;84.66;96375.41;103845;1292;63969;-85
2024/01/15 09:41:45;;;;;;;12.60;10.70;;;;;;;1.62;84.68;96375.63;103472;1292;73907;-85
2024/01/15 09:44:22;;;;;;;10.70;8.60;;;;;;;1.65;84.42;96387.11;103443;1289;74908;-85
2024/01/15 09:46:52;;;;;;;12.80;9.00;;;;;;;1.66;84.57;96389.85;103220;1290;71949;-85
2024/01/15 09:49:27;;;;;;;13.10;8.40;;;;;;;1.67;84.39;96402.64;103505;1286;61199;-84
2024/01/15 09:52:30;;;;;;;10.60;7.60;;;;;;;1.69;84.27;96390.70;104917;1283;61318;-84
2024/01/15 09:55:07;;;;;;;12.00;10.10;;;;;;;1.70;84.92;96379.64;104205;1279;74100;-85
2024/01/15 09:57:37;;;;;;;9.70;8.20;;;;;;;1.73;84.53;96378.78;103954;1280;74295;-84
2024/01/15 10:00:12;;;;;;;16.10;10.20;;;;;;;1.75;83.72;96367.54;104105;1286;71661;-84
2024/01/15 10:18:33;;;;;;;11.70;9.20;;;;;;;1.94;82.24;96370.52;103497;1279;71315;-93
2024/01/15 10:55:11;;;;;;;10.90;8.80;;;;;;;2.60;77.75;96372.90;104796;1273;73408;-92
2024/01/15 11:06:56;;;;;;;11.10;9.80;;;;;;;3.11;76.29;96351.65;105866;1282;71948;-91
2024/01/15 11:17:26;;;;;;;10.70;8.70;;;;;;;3.83;65.73;96336.67;105381;1282;61140;-94
2024/01/15 11:24:40;;;;;;;11.10;9.00;;;;;;;4.10;64.50;96322.55;104045;1286;75319;-91
2024/01/15 11:33:07;;;;;;;9.70;8.70;;;;;;;4.42;60.88;96324.90;103289;1300;72691;-93
2024/01/15 11:40:47;;;;;;;9.60;8.00;;;;;;;4.63;58.65;96315.30;106224;1276;61128;-91
2024/01/15 11:44:23;;;;;;;;;;;;;;;;;;;;;
2024/01/15 11:47:48;;;;;;;10.50;8.90;;;;;;;4.88;57.58;96299.80;105012;1283;75263;-91
2024/01/15 11:51:11;;;;;;;12.20;9.40;;;;;;;4.99;57.69;96313.10;105046;1282;73330;-92
2024/01/15 11:54:04;;;;;;;;;;;;;;;5.10;57.43;96308.23;106331;1286;61077;-91
2024/01/15 11:56:43;;;;;;;10.50;8.80;;;;;;;5.19;57.31;96310.28;106558;1286;60394;-93
2024/01/15 11:59:15;;;;;;;11.00;9.60;;;;;;;5.29;57.44;96303.41;105813;1284;74309;-89
2024/01/15 12:01:45;;;;;;;10.10;7.90;;;;;;;5.43;56.64;96303.39;105895;1286;73486;-88
2024/01/15 12:04:19;;;;;;;10.70;7.60;;;;;;;5.55;54.98;96326.90;106632;1284;73654;-91
2024/01/15 12:07:04;;;;;;;8.10;7.30;;;;;;;5.64;53.36;96318.14;105700;1295;599407;-87
2024/01/15 12:09:35;;;;;;;8.80;7.20;;;;;;;5.72;53.53;96309.34;108162;1269;59339;-88
2024/01/15 12:12:25;;;;;;;6.60;5.50;;;;;;;5.81;53.84;96306.45;108916;1262;59963;-88
2024/01/15 12:19:49;;;;;;;7.80;6.30;;;;;;;6.13;51.91;96324.26;94990;1271;72261;-94
2024/01/15 12:35:10;;;;;;;;;;;;;;;;;;;;;
2024/01/15 12:38:44;;;;;;;7.10;5.90;;;;;;;6.50;47.73;96347.73;106643;1286;58560;-92
2024/01/15 12:57:08;;;;;;;9.30;7.80;;;;;;;6.59;47.26;96323.95;104213;1288;61531;-89
2024/01/15 13:00:20;;;;;;;8.80;7.70;;;;;;;6.67;47.24;96326.90;103683;1292;61230;-91
2024/01/15 13:03:20;;;;;;;7.90;7.10;;;;;;;6.73;47.03;96323.05;103891;1289;73075;-90
2024/01/15 13:06:16;;;;;;;;;;;;;;;;;;;;;
2024/01/15 13:10:25;;;;;;;7.80;6.40;;;;;;;6.73;46.47;96347.60;102901;1301;73316;-91
2024/01/15 13:13:21;;;;;;;7.90;5.90;;;;;;;6.46;46.48;96340.96;105236;1304;60405;-89
2024/01/15 13:16:19;;;;;;;8.50;6.90;;;;;;;6.18;46.94;96348.16;106440;1283;60518;-89
2024/01/15 13:18:50;;;;;;;;;;;;;;;5.90;47.66;96342.83;106827;1282;73484;-87
2024/01/15 13:21:34;;;;;;;;;;;;;;;;;;;;;
2024/01/15 13:24:18;;;;;;;;;;;;;;;5.22;48.92;96350.64;106893;1283;71881;-88
2024/01/15 13:27:06;;;;;;;7.60;6.20;;;;;;;4.88;49.68;96349.11;106825;1283;58569;-90
2024/01/15 13:29:48;;;;;;;7.80;6.60;;;;;;;4.57;50.73;96351.32;105995;1283;59838;-87
2024/01/15 13:32:48;;;;;;;;;;;;;;;;;;;;;
2024/01/15 13:35:24;;;;;;;7.20;6.00;;;;;;;4.11;52.04;96346.35;104500;1289;72415;-87
2024/01/15 13:37:58;;;;;;;7.90;6.20;;;;;;;3.93;52.49;96348.60;104426;1286;72855;-85
2024/01/15 13:40:32;;;;;;;;;;;;;;;3.78;52.97;96351.70;104022;1284;61233;-85
2024/01/15 13:43:14;;;;;;;9.70;6.90;;;;;;;3.61;53.60;96355.80;104130;1283;61064;-85
2024/01/15 13:46:08;;;;;;;8.00;7.10;;;;;;;3.45;53.97;96356.27;103936;1289;72814;-85
2024/01/15 13:48:41;;;;;;;10.60;7.50;;;;;;;3.31;54.35;96358.85;103598;1289;74254;-86
2024/01/15 13:51:11;;;;;;;9.90;7.60;;;;;;;3.20;54.88;96357.66;103971;1289;72859;-89
2024/01/15 13:54:01;;;;;;;12.00;9.70;;;;;;;3.08;55.22;96354.67;104928;1286;61135;-85
2024/01/15 13:56:32;;;;;;;13.40;10.90;;;;;;;2.99;56.08;96360.28;105387;1283;59881;-85
2024/01/15 13:59:04;;;;;;;13.60;11.30;;;;;;;2.91;56.57;96361.02;105656;1289;74624;-87
2024/01/15 14:01:48;;;;;;;19.00;14.30;;;;;;;2.84;56.74;96360.83;104750;1283;74419;-88
2024/01/15 14:04:41;;;;;;;16.20;12.60;;;;;;;2.75;56.96;96364.30;105326;1287;72396;-87
2024/01/15 14:07:21;;;;;;;19.20;14.90;;;;;;;2.68;57.55;96357.81;105325;1284;61253;-86
2024/01/15 14:09:58;;;;;;;11.80;8.30;;;;;;;2.62;58.18;96365.73;104551;1282;62106;-88
2024/01/15 14:12:29;;;;;;;12.70;10.90;;;;;;;2.51;58.26;96356.55;105310;1285;71575;-89
2024/01/15 14:15:13;;;;;;;14.10;11.00;;;;;;;2.43;58.68;96355.34;105062;1289;73110;-86
2024/01/15 14:17:41;;;;;;;11.70;10.30;;;;;;;2.35;59.17;96364.54;104630;1288;73997;-88
2024/01/15 14:20:16;;;;;;;11.40;7.20;;;;;;;2.28;59.46;96371.23;104256;1289;61218;-88
2024/01/15 14:23:04;;;;;;;12.30;9.80;;;;;;;2.16;59.55;96369.73;104622;1286;59853;-84
2024/01/15 14:25:31;;;;;;;13.00;10.10;;;;;;;2.09;60.23;96375.18;104323;1285;73022;-85
2024/01/15 14:28:06;;;;;;;12.90;11.30;;;;;;;2.01;60.53;96380.27;104560;1284;74264;-88
2024/01/15 14:30:41;;;;;;;13.40;10.90;;;;;;;1.94;61.11;96373.48;104532;1289;73402;-87
2024/01/15 14:33:09;;;;;;;15.40;11.40;;;;;;;1.89;60.99;96368.05;104626;1288;61138;-84
2024/01/15 14:35:51;;;;;;;14.50;11.80;;;;;;;1.83;61.24;96365.79;105302;1288;61169;-88
2024/01/15 14:38:22;;;;;;;17.30;13.80;;;;;;;1.78;61.47;96369.61;104293;1289;73716;-89
2024/01/15 14:40:52;;;;;;;17.00;12.60;;;;;;;1.72;61.52;96372.65;104411;1286;73980;-88
2024/01/15 14:43:22;;;;;;;12.60;10.40;;;;;;;1.66;61.50;96372.16;104387;1284;72655;-88
2024/01/15 14:45:49;;;;;;;12.70;9.80;;;;;;;1.61;61.44;96375.52;104309;1287;61173;-86
2024/01/15 14:48:18;;;;;;;18.70;10.60;;;;;;;1.55;62.07;96378.92;104609;1285;61064;-88
2024/01/15 14:51:24;;;;;;;11.10;9.90;;;;;;;1.48;61.85;96377.95;105564;1283;75237;-89
2024/01/15 14:54:01;;;;;;;13.70;10.50;;;;;;;1.39;62.16;96370.92;104850;1287;74658;-88
2024/01/15 14:56:34;;;;;;;13.80;10.40;;;;;;;1.33;62.61;96369.92;104682;1286;73591;-90
2024/01/15 14:59:23;;;;;;;12.50;10.00;;;;;;;1.26;63.14;96380.23;104526;1286;61099;-87
2024/01/15 15:01:57;;;;;;;19.90;10.50;;;;;;;1.20;63.25;96377.07;104236;1283;61090;-85